sensor_id;sensor_type;location;lat;lon;timestamp;P1;durP1;ratioP1;P2;durP2;ratioP2
69890;SDS011;57170;43.964;21.262;2022-08-06T00:02:10;9.82;;;6.47;;
69890;SDS011;57170;43.964;21.262;2022-08-06T00:04:36;8.43;;;6.32;;
69890;SDS011;57170;43.964;21.262;2022-08-06T00:07:02;7.03;;;6.30;;
69890;SDS011;57170;43.964;21.262;2022-08-06T00:09:29;9.43;;;6.70;;
69890;SDS011;57170;43.964;21.262;2022-08-06T00:12:03;9.02;;;5.80;;
69890;SDS011;57170;43.964;21.262;2022-08-06T00:14:29;10.98;;;7.00;;
69890;SDS011;57170;43.964;21.262;2022-08-06T00:16:55;10.25;;;7.20;;
69890;SDS011;57170;43.964;21.262;2022-08-06T00:19:21;9.13;;;6.88;;
69890;SDS011;57170;43.964;21.262;2022-08-06T00:21:48;9.48;;;7.03;;
69890;SDS011;57170;43.964;21.262;2022-08-06T00:24:14;11.02;;;6.80;;
69890;SDS011;57170;43.964;21.262;2022-08-06T00:26:40;12.30;;;8.05;;
69890;SDS011;57170;43.964;21.262;2022-08-06T00:29:07;10.02;;;7.60;;
69890;SDS011;57170;43.964;21.262;2022-08-06T00:31:33;8.25;;;6.93;;
69890;SDS011;57170;43.964;21.262;2022-08-06T00:33:59;8.20;;;6.88;;
69890;SDS011;57170;43.964;21.262;2022-08-06T00:36:28;8.07;;;7.18;;
69890;SDS011;57170;43.964;21.262;2022-08-06T00:38:55;10.35;;;7.82;;
69890;SDS011;57170;43.964;21.262;2022-08-06T00:41:21;11.68;;;7.35;;
69890;SDS011;57170;43.964;21.262;2022-08-06T00:43:48;9.30;;;7.20;;
69890;SDS011;57170;43.964;21.262;2022-08-06T00:46:14;12.48;;;8.65;;
69890;SDS011;57170;43.964;21.262;2022-08-06T00:48:40;8.75;;;7.53;;
69890;SDS011;57170;43.964;21.262;2022-08-06T00:51:06;10.27;;;7.93;;
69890;SDS011;57170;43.964;21.262;2022-08-06T00:53:32;12.20;;;7.28;;
69890;SDS011;57170;43.964;21.262;2022-08-06T00:55:58;8.50;;;7.60;;
69890;SDS011;57170;43.964;21.262;2022-08-06T00:58:26;13.35;;;7.35;;
69890;SDS011;57170;43.964;21.262;2022-08-06T01:00:52;9.18;;;8.05;;
69890;SDS011;57170;43.964;21.262;2022-08-06T01:03:18;7.93;;;7.20;;
69890;SDS011;57170;43.964;21.262;2022-08-06T01:05:44;11.48;;;8.02;;
69890;SDS011;57170;43.964;21.262;2022-08-06T01:08:11;11.57;;;7.75;;
69890;SDS011;57170;43.964;21.262;2022-08-06T01:10:38;8.63;;;7.68;;
69890;SDS011;57170;43.964;21.262;2022-08-06T01:13:04;10.68;;;7.72;;
69890;SDS011;57170;43.964;21.262;2022-08-06T01:15:32;9.40;;;7.60;;
69890;SDS011;57170;43.964;21.262;2022-08-06T01:18:07;9.57;;;7.07;;
69890;SDS011;57170;43.964;21.262;2022-08-06T01:23:28;10.00;;;6.95;;
69890;SDS011;57170;43.964;21.262;2022-08-06T01:31:17;8.93;;;7.40;;
69890;SDS011;57170;43.964;21.262;2022-08-06T01:36:13;9.02;;;7.78;;
69890;SDS011;57170;43.964;21.262;2022-08-06T01:38:50;9.43;;;7.70;;
69890;SDS011;57170;43.964;21.262;2022-08-06T01:41:17;11.65;;;7.88;;
69890;SDS011;57170;43.964;21.262;2022-08-06T01:44:04;9.57;;;7.82;;
69890;SDS011;57170;43.964;21.262;2022-08-06T01:46:31;9.63;;;8.15;;
69890;SDS011;57170;43.964;21.262;2022-08-06T01:48:58;8.27;;;7.47;;
69890;SDS011;57170;43.964;21.262;2022-08-06T01:51:25;8.10;;;7.25;;
69890;SDS011;57170;43.964;21.262;2022-08-06T01:53:52;8.88;;;7.30;;
69890;SDS011;57170;43.964;21.262;2022-08-06T01:56:18;8.45;;;7.57;;
69890;SDS011;57170;43.964;21.262;2022-08-06T01:58:45;9.95;;;7.82;;
69890;SDS011;57170;43.964;21.262;2022-08-06T02:01:13;12.20;;;8.10;;
69890;SDS011;57170;43.964;21.262;2022-08-06T02:03:43;10.23;;;8.27;;
69890;SDS011;57170;43.964;21.262;2022-08-06T02:06:14;10.18;;;7.88;;
69890;SDS011;57170;43.964;21.262;2022-08-06T02:08:40;10.20;;;7.95;;
69890;SDS011;57170;43.964;21.262;2022-08-06T02:11:08;8.63;;;7.50;;
69890;SDS011;57170;43.964;21.262;2022-08-06T02:13:35;10.35;;;7.95;;
69890;SDS011;57170;43.964;21.262;2022-08-06T02:16:02;10.43;;;8.60;;
69890;SDS011;57170;43.964;21.262;2022-08-06T02:18:30;8.30;;;7.18;;
69890;SDS011;57170;43.964;21.262;2022-08-06T02:20:57;7.95;;;7.15;;
69890;SDS011;57170;43.964;21.262;2022-08-06T02:23:26;8.68;;;7.78;;
69890;SDS011;57170;43.964;21.262;2022-08-06T02:25:53;10.15;;;7.88;;
69890;SDS011;57170;43.964;21.262;2022-08-06T02:28:21;9.32;;;7.20;;
69890;SDS011;57170;43.964;21.262;2022-08-06T02:30:49;12.48;;;8.65;;
69890;SDS011;57170;43.964;21.262;2022-08-06T02:33:17;10.38;;;8.45;;
69890;SDS011;57170;43.964;21.262;2022-08-06T02:38:35;13.18;;;8.18;;
69890;SDS011;57170;43.964;21.262;2022-08-06T02:41:00;9.18;;;8.27;;
69890;SDS011;57170;43.964;21.262;2022-08-06T02:43:30;12.65;;;8.48;;
69890;SDS011;57170;43.964;21.262;2022-08-06T02:46:07;9.15;;;8.18;;
69890;SDS011;57170;43.964;21.262;2022-08-06T02:48:39;9.32;;;8.27;;
69890;SDS011;57170;43.964;21.262;2022-08-06T02:51:08;11.55;;;9.18;;
69890;SDS011;57170;43.964;21.262;2022-08-06T02:56:20;9.90;;;8.27;;
69890;SDS011;57170;43.964;21.262;2022-08-06T02:58:48;10.10;;;8.57;;
69890;SDS011;57170;43.964;21.262;2022-08-06T03:01:21;11.02;;;9.20;;
69890;SDS011;57170;43.964;21.262;2022-08-06T03:03:48;9.52;;;8.48;;
69890;SDS011;57170;43.964;21.262;2022-08-06T03:06:15;8.43;;;7.38;;
69890;SDS011;57170;43.964;21.262;2022-08-06T03:08:42;8.32;;;7.35;;
69890;SDS011;57170;43.964;21.262;2022-08-06T03:11:09;15.30;;;8.95;;
69890;SDS011;57170;43.964;21.262;2022-08-06T03:13:37;8.15;;;7.35;;
69890;SDS011;57170;43.964;21.262;2022-08-06T03:16:04;10.23;;;7.03;;
69890;SDS011;57170;43.964;21.262;2022-08-06T03:18:30;13.10;;;8.77;;
69890;SDS011;57170;43.964;21.262;2022-08-06T03:20:57;11.60;;;9.93;;
69890;SDS011;57170;43.964;21.262;2022-08-06T03:23:23;8.75;;;7.82;;
69890;SDS011;57170;43.964;21.262;2022-08-06T03:25:50;11.68;;;8.90;;
69890;SDS011;57170;43.964;21.262;2022-08-06T03:28:17;10.55;;;8.80;;
69890;SDS011;57170;43.964;21.262;2022-08-06T03:30:43;9.90;;;8.90;;
69890;SDS011;57170;43.964;21.262;2022-08-06T03:33:12;9.65;;;7.78;;
69890;SDS011;57170;43.964;21.262;2022-08-06T03:35:39;9.68;;;8.18;;
69890;SDS011;57170;43.964;21.262;2022-08-06T03:38:09;10.23;;;9.00;;
69890;SDS011;57170;43.964;21.262;2022-08-06T03:40:36;11.13;;;7.90;;
69890;SDS011;57170;43.964;21.262;2022-08-06T03:43:03;8.85;;;7.20;;
69890;SDS011;57170;43.964;21.262;2022-08-06T03:45:30;10.88;;;8.30;;
69890;SDS011;57170;43.964;21.262;2022-08-06T03:47:57;8.70;;;7.68;;
69890;SDS011;57170;43.964;21.262;2022-08-06T03:50:29;9.25;;;7.93;;
69890;SDS011;57170;43.964;21.262;2022-08-06T03:52:59;10.68;;;8.43;;
69890;SDS011;57170;43.964;21.262;2022-08-06T03:55:26;13.07;;;8.00;;
69890;SDS011;57170;43.964;21.262;2022-08-06T03:57:55;13.90;;;8.85;;
69890;SDS011;57170;43.964;21.262;2022-08-06T04:00:23;10.60;;;8.13;;
69890;SDS011;57170;43.964;21.262;2022-08-06T04:02:51;8.88;;;7.97;;
69890;SDS011;57170;43.964;21.262;2022-08-06T04:05:18;9.98;;;7.97;;
69890;SDS011;57170;43.964;21.262;2022-08-06T04:07:45;9.10;;;7.65;;
69890;SDS011;57170;43.964;21.262;2022-08-06T04:10:12;9.10;;;7.85;;
69890;SDS011;57170;43.964;21.262;2022-08-06T04:12:38;8.25;;;6.85;;
69890;SDS011;57170;43.964;21.262;2022-08-06T04:15:05;9.98;;;7.20;;
69890;SDS011;57170;43.964;21.262;2022-08-06T04:17:32;10.38;;;7.65;;
69890;SDS011;57170;43.964;21.262;2022-08-06T04:19:58;7.97;;;7.18;;
69890;SDS011;57170;43.964;21.262;2022-08-06T04:22:25;8.70;;;7.80;;
69890;SDS011;57170;43.964;21.262;2022-08-06T04:24:51;9.27;;;7.68;;
69890;SDS011;57170;43.964;21.262;2022-08-06T04:27:17;8.38;;;7.28;;
69890;SDS011;57170;43.964;21.262;2022-08-06T04:29:45;10.50;;;7.60;;
69890;SDS011;57170;43.964;21.262;2022-08-06T04:32:13;14.88;;;11.60;;
69890;SDS011;57170;43.964;21.262;2022-08-06T04:34:39;13.23;;;11.93;;
69890;SDS011;57170;43.964;21.262;2022-08-06T04:37:06;10.45;;;8.90;;
69890;SDS011;57170;43.964;21.262;2022-08-06T04:39:33;9.25;;;8.18;;
69890;SDS011;57170;43.964;21.262;2022-08-06T04:41:59;10.20;;;8.35;;
69890;SDS011;57170;43.964;21.262;2022-08-06T04:44:25;10.77;;;6.82;;
69890;SDS011;57170;43.964;21.262;2022-08-06T04:46:53;8.20;;;7.40;;
69890;SDS011;57170;43.964;21.262;2022-08-06T04:49:19;11.65;;;8.27;;
69890;SDS011;57170;43.964;21.262;2022-08-06T04:51:46;12.70;;;7.75;;
69890;SDS011;57170;43.964;21.262;2022-08-06T04:54:13;10.07;;;8.60;;
69890;SDS011;57170;43.964;21.262;2022-08-06T04:56:39;10.25;;;7.50;;
69890;SDS011;57170;43.964;21.262;2022-08-06T04:59:06;8.60;;;6.57;;
69890;SDS011;57170;43.964;21.262;2022-08-06T05:01:32;8.20;;;7.47;;
69890;SDS011;57170;43.964;21.262;2022-08-06T05:03:58;8.02;;;7.22;;
69890;SDS011;57170;43.964;21.262;2022-08-06T05:06:29;8.55;;;7.25;;
69890;SDS011;57170;43.964;21.262;2022-08-06T05:08:58;8.63;;;7.00;;
69890;SDS011;57170;43.964;21.262;2022-08-06T05:11:28;9.23;;;6.57;;
69890;SDS011;57170;43.964;21.262;2022-08-06T05:13:57;7.80;;;7.10;;
69890;SDS011;57170;43.964;21.262;2022-08-06T05:16:24;7.38;;;6.53;;
69890;SDS011;57170;43.964;21.262;2022-08-06T05:18:53;7.63;;;6.20;;
69890;SDS011;57170;43.964;21.262;2022-08-06T05:21:23;7.28;;;6.68;;
69890;SDS011;57170;43.964;21.262;2022-08-06T05:23:54;8.07;;;6.90;;
69890;SDS011;57170;43.964;21.262;2022-08-06T05:26:20;7.13;;;6.43;;
69890;SDS011;57170;43.964;21.262;2022-08-06T05:28:47;10.50;;;7.30;;
69890;SDS011;57170;43.964;21.262;2022-08-06T05:31:14;9.77;;;6.38;;
69890;SDS011;57170;43.964;21.262;2022-08-06T05:33:40;7.80;;;7.00;;
69890;SDS011;57170;43.964;21.262;2022-08-06T05:36:11;7.35;;;6.45;;
69890;SDS011;57170;43.964;21.262;2022-08-06T05:38:38;7.88;;;7.07;;
69890;SDS011;57170;43.964;21.262;2022-08-06T05:41:05;7.97;;;6.32;;
69890;SDS011;57170;43.964;21.262;2022-08-06T05:43:32;9.00;;;7.40;;
69890;SDS011;57170;43.964;21.262;2022-08-06T05:45:59;10.32;;;6.82;;
69890;SDS011;57170;43.964;21.262;2022-08-06T05:48:28;14.52;;;8.07;;
69890;SDS011;57170;43.964;21.262;2022-08-06T05:50:57;10.48;;;9.55;;
69890;SDS011;57170;43.964;21.262;2022-08-06T05:53:28;9.60;;;7.85;;
69890;SDS011;57170;43.964;21.262;2022-08-06T05:55:58;13.10;;;8.85;;
69890;SDS011;57170;43.964;21.262;2022-08-06T05:59:12;8.70;;;7.85;;
69890;SDS011;57170;43.964;21.262;2022-08-06T06:01:12;12.18;;;8.68;;
69890;SDS011;57170;43.964;21.262;2022-08-06T06:03:38;9.70;;;8.73;;
69890;SDS011;57170;43.964;21.262;2022-08-06T06:06:06;11.23;;;8.35;;
69890;SDS011;57170;43.964;21.262;2022-08-06T06:08:32;11.20;;;9.05;;
69890;SDS011;57170;43.964;21.262;2022-08-06T06:10:58;11.95;;;7.65;;
69890;SDS011;57170;43.964;21.262;2022-08-06T06:13:24;12.15;;;7.95;;
69890;SDS011;57170;43.964;21.262;2022-08-06T06:15:57;9.30;;;7.78;;
69890;SDS011;57170;43.964;21.262;2022-08-06T06:23:34;8.30;;;7.40;;
69890;SDS011;57170;43.964;21.262;2022-08-06T06:26:12;11.18;;;8.55;;
69890;SDS011;57170;43.964;21.262;2022-08-06T06:31:38;10.45;;;8.25;;
69890;SDS011;57170;43.964;21.262;2022-08-06T06:34:19;9.73;;;8.20;;
69890;SDS011;57170;43.964;21.262;2022-08-06T06:41:47;11.73;;;7.65;;
69890;SDS011;57170;43.964;21.262;2022-08-06T06:46:45;10.15;;;9.05;;
69890;SDS011;57170;43.964;21.262;2022-08-06T06:49:16;9.95;;;8.63;;
69890;SDS011;57170;43.964;21.262;2022-08-06T06:51:43;10.27;;;9.38;;
69890;SDS011;57170;43.964;21.262;2022-08-06T06:54:12;10.20;;;9.18;;
69890;SDS011;57170;43.964;21.262;2022-08-06T06:56:44;12.93;;;9.18;;
69890;SDS011;57170;43.964;21.262;2022-08-06T06:59:18;13.77;;;10.18;;
69890;SDS011;57170;43.964;21.262;2022-08-06T07:01:46;10.07;;;9.07;;
69890;SDS011;57170;43.964;21.262;2022-08-06T07:04:13;11.10;;;9.77;;
69890;SDS011;57170;43.964;21.262;2022-08-06T07:06:40;9.48;;;8.40;;
69890;SDS011;57170;43.964;21.262;2022-08-06T07:09:06;12.38;;;9.32;;
69890;SDS011;57170;43.964;21.262;2022-08-06T07:11:33;13.10;;;9.88;;
69890;SDS011;57170;43.964;21.262;2022-08-06T07:13:59;10.38;;;9.35;;
69890;SDS011;57170;43.964;21.262;2022-08-06T07:16:26;11.80;;;9.82;;
69890;SDS011;57170;43.964;21.262;2022-08-06T07:18:53;11.02;;;8.48;;
69890;SDS011;57170;43.964;21.262;2022-08-06T07:21:20;11.10;;;9.98;;
69890;SDS011;57170;43.964;21.262;2022-08-06T07:23:48;16.10;;;11.90;;
69890;SDS011;57170;43.964;21.262;2022-08-06T07:26:17;10.18;;;9.30;;
69890;SDS011;57170;43.964;21.262;2022-08-06T07:28:43;11.23;;;8.73;;
69890;SDS011;57170;43.964;21.262;2022-08-06T07:31:10;10.02;;;9.02;;
69890;SDS011;57170;43.964;21.262;2022-08-06T07:33:38;9.60;;;8.80;;
69890;SDS011;57170;43.964;21.262;2022-08-06T07:36:05;11.15;;;8.48;;
69890;SDS011;57170;43.964;21.262;2022-08-06T07:38:31;10.32;;;8.85;;
69890;SDS011;57170;43.964;21.262;2022-08-06T07:40:59;12.10;;;8.98;;
69890;SDS011;57170;43.964;21.262;2022-08-06T07:43:28;9.65;;;8.60;;
69890;SDS011;57170;43.964;21.262;2022-08-06T07:45:55;9.93;;;8.75;;
69890;SDS011;57170;43.964;21.262;2022-08-06T07:48:27;10.32;;;8.40;;
69890;SDS011;57170;43.964;21.262;2022-08-06T07:50:54;13.07;;;9.68;;
69890;SDS011;57170;43.964;21.262;2022-08-06T07:53:21;10.23;;;9.25;;
69890;SDS011;57170;43.964;21.262;2022-08-06T07:55:47;10.90;;;9.43;;
69890;SDS011;57170;43.964;21.262;2022-08-06T07:58:13;11.95;;;9.57;;
69890;SDS011;57170;43.964;21.262;2022-08-06T08:00:40;9.85;;;8.70;;
69890;SDS011;57170;43.964;21.262;2022-08-06T08:03:07;11.35;;;9.20;;
69890;SDS011;57170;43.964;21.262;2022-08-06T08:05:54;11.10;;;8.43;;
69890;SDS011;57170;43.964;21.262;2022-08-06T08:08:39;11.52;;;8.50;;
69890;SDS011;57170;43.964;21.262;2022-08-06T08:11:05;8.60;;;7.78;;
69890;SDS011;57170;43.964;21.262;2022-08-06T08:13:32;8.32;;;7.63;;
69890;SDS011;57170;43.964;21.262;2022-08-06T08:15:59;10.82;;;7.82;;
69890;SDS011;57170;43.964;21.262;2022-08-06T08:18:29;9.45;;;7.95;;
69890;SDS011;57170;43.964;21.262;2022-08-06T08:20:56;9.00;;;8.13;;
69890;SDS011;57170;43.964;21.262;2022-08-06T08:23:22;10.77;;;8.52;;
69890;SDS011;57170;43.964;21.262;2022-08-06T08:25:49;9.55;;;8.65;;
69890;SDS011;57170;43.964;21.262;2022-08-06T08:28:15;9.30;;;8.40;;
69890;SDS011;57170;43.964;21.262;2022-08-06T08:30:42;8.20;;;7.53;;
69890;SDS011;57170;43.964;21.262;2022-08-06T08:33:08;8.75;;;7.95;;
69890;SDS011;57170;43.964;21.262;2022-08-06T08:35:34;9.30;;;8.40;;
69890;SDS011;57170;43.964;21.262;2022-08-06T08:38:00;8.95;;;8.00;;
69890;SDS011;57170;43.964;21.262;2022-08-06T08:40:26;10.25;;;9.18;;
69890;SDS011;57170;43.964;21.262;2022-08-06T08:42:54;9.10;;;8.40;;
69890;SDS011;57170;43.964;21.262;2022-08-06T08:45:23;9.27;;;8.50;;
69890;SDS011;57170;43.964;21.262;2022-08-06T08:47:50;8.93;;;8.13;;
69890;SDS011;57170;43.964;21.262;2022-08-06T08:50:29;9.20;;;8.38;;
69890;SDS011;57170;43.964;21.262;2022-08-06T08:53:02;12.15;;;8.75;;
69890;SDS011;57170;43.964;21.262;2022-08-06T08:55:28;9.10;;;8.20;;
69890;SDS011;57170;43.964;21.262;2022-08-06T08:57:55;8.73;;;8.00;;
69890;SDS011;57170;43.964;21.262;2022-08-06T09:00:21;8.57;;;7.97;;
69890;SDS011;57170;43.964;21.262;2022-08-06T09:02:48;9.40;;;8.55;;
69890;SDS011;57170;43.964;21.262;2022-08-06T09:05:14;10.05;;;9.25;;
69890;SDS011;57170;43.964;21.262;2022-08-06T09:07:41;11.15;;;10.15;;
69890;SDS011;57170;43.964;21.262;2022-08-06T09:10:08;11.10;;;10.07;;
69890;SDS011;57170;43.964;21.262;2022-08-06T09:12:35;9.77;;;9.07;;
69890;SDS011;57170;43.964;21.262;2022-08-06T09:15:01;10.00;;;9.02;;
69890;SDS011;57170;43.964;21.262;2022-08-06T09:17:30;11.05;;;10.25;;
69890;SDS011;57170;43.964;21.262;2022-08-06T09:19:57;11.40;;;10.50;;
69890;SDS011;57170;43.964;21.262;2022-08-06T09:22:23;11.43;;;10.52;;
69890;SDS011;57170;43.964;21.262;2022-08-06T09:24:49;10.75;;;9.95;;
69890;SDS011;57170;43.964;21.262;2022-08-06T09:27:17;10.48;;;9.35;;
69890;SDS011;57170;43.964;21.262;2022-08-06T09:29:53;9.77;;;9.00;;
69890;SDS011;57170;43.964;21.262;2022-08-06T09:35:25;10.77;;;9.73;;
69890;SDS011;57170;43.964;21.262;2022-08-06T09:38:03;10.20;;;9.60;;
69890;SDS011;57170;43.964;21.262;2022-08-06T09:40:29;9.77;;;9.18;;
69890;SDS011;57170;43.964;21.262;2022-08-06T09:42:56;8.95;;;8.30;;
69890;SDS011;57170;43.964;21.262;2022-08-06T09:45:22;8.73;;;8.02;;
69890;SDS011;57170;43.964;21.262;2022-08-06T09:47:59;8.65;;;8.10;;
69890;SDS011;57170;43.964;21.262;2022-08-06T09:50:40;9.02;;;8.25;;
69890;SDS011;57170;43.964;21.262;2022-08-06T09:53:07;7.80;;;7.10;;
69890;SDS011;57170;43.964;21.262;2022-08-06T09:55:33;7.97;;;7.38;;
69890;SDS011;57170;43.964;21.262;2022-08-06T09:58:00;6.88;;;6.28;;
69890;SDS011;57170;43.964;21.262;2022-08-06T10:00:26;6.60;;;5.97;;
69890;SDS011;57170;43.964;21.262;2022-08-06T10:03:00;6.40;;;3.80;;
69890;SDS011;57170;43.964;21.262;2022-08-06T10:05:27;4.80;;;4.13;;
69890;SDS011;57170;43.964;21.262;2022-08-06T10:08:04;4.15;;;3.28;;
69890;SDS011;57170;43.964;21.262;2022-08-06T10:10:42;5.53;;;3.20;;
69890;SDS011;57170;43.964;21.262;2022-08-06T10:13:16;5.50;;;3.33;;
69890;SDS011;57170;43.964;21.262;2022-08-06T10:15:42;7.07;;;3.40;;
69890;SDS011;57170;43.964;21.262;2022-08-06T10:23:28;4.88;;;3.70;;
69890;SDS011;57170;43.964;21.262;2022-08-06T10:25:55;5.70;;;3.42;;
69890;SDS011;57170;43.964;21.262;2022-08-06T10:28:22;6.90;;;4.65;;
69890;SDS011;57170;43.964;21.262;2022-08-06T10:30:50;7.57;;;3.83;;
69890;SDS011;57170;43.964;21.262;2022-08-06T10:33:16;7.13;;;3.75;;
69890;SDS011;57170;43.964;21.262;2022-08-06T10:35:43;5.03;;;3.17;;
69890;SDS011;57170;43.964;21.262;2022-08-06T10:38:12;5.10;;;3.17;;
69890;SDS011;57170;43.964;21.262;2022-08-06T10:40:41;5.72;;;3.97;;
69890;SDS011;57170;43.964;21.262;2022-08-06T10:43:09;4.20;;;3.35;;
69890;SDS011;57170;43.964;21.262;2022-08-06T10:45:35;4.47;;;3.85;;
69890;SDS011;57170;43.964;21.262;2022-08-06T10:48:03;4.25;;;3.13;;
69890;SDS011;57170;43.964;21.262;2022-08-06T10:50:29;4.55;;;3.30;;
69890;SDS011;57170;43.964;21.262;2022-08-06T10:52:56;5.90;;;3.10;;
69890;SDS011;57170;43.964;21.262;2022-08-06T10:55:22;4.80;;;4.00;;
69890;SDS011;57170;43.964;21.262;2022-08-06T10:57:48;4.15;;;3.30;;
69890;SDS011;57170;43.964;21.262;2022-08-06T11:00:15;6.28;;;4.25;;
69890;SDS011;57170;43.964;21.262;2022-08-06T11:05:20;7.00;;;4.50;;
69890;SDS011;57170;43.964;21.262;2022-08-06T11:12:54;4.22;;;3.63;;
69890;SDS011;57170;43.964;21.262;2022-08-06T11:15:22;8.05;;;3.83;;
69890;SDS011;57170;43.964;21.262;2022-08-06T11:17:50;7.03;;;4.50;;
69890;SDS011;57170;43.964;21.262;2022-08-06T11:23:31;8.95;;;4.07;;
69890;SDS011;57170;43.964;21.262;2022-08-06T11:25:52;5.82;;;3.55;;
69890;SDS011;57170;43.964;21.262;2022-08-06T11:30:57;5.53;;;4.20;;
69890;SDS011;57170;43.964;21.262;2022-08-06T11:36:00;5.07;;;4.05;;
69890;SDS011;57170;43.964;21.262;2022-08-06T11:41:29;4.95;;;3.95;;
69890;SDS011;57170;43.964;21.262;2022-08-06T11:49:10;7.40;;;3.88;;
69890;SDS011;57170;43.964;21.262;2022-08-06T11:51:46;4.72;;;3.72;;
69890;SDS011;57170;43.964;21.262;2022-08-06T11:57:24;4.13;;;3.40;;
69890;SDS011;57170;43.964;21.262;2022-08-06T11:59:35;5.93;;;3.72;;
69890;SDS011;57170;43.964;21.262;2022-08-06T12:02:03;7.70;;;4.25;;
69890;SDS011;57170;43.964;21.262;2022-08-06T12:04:39;7.53;;;4.10;;
69890;SDS011;57170;43.964;21.262;2022-08-06T12:14:53;10.02;;;4.13;;
69890;SDS011;57170;43.964;21.262;2022-08-06T12:17:24;5.40;;;4.25;;
69890;SDS011;57170;43.964;21.262;2022-08-06T12:19:51;5.30;;;4.30;;
69890;SDS011;57170;43.964;21.262;2022-08-06T12:22:18;10.15;;;4.75;;
69890;SDS011;57170;43.964;21.262;2022-08-06T12:24:45;4.85;;;3.65;;
69890;SDS011;57170;43.964;21.262;2022-08-06T12:27:12;4.38;;;3.92;;
69890;SDS011;57170;43.964;21.262;2022-08-06T12:29:38;5.25;;;4.43;;
69890;SDS011;57170;43.964;21.262;2022-08-06T12:34:51;8.70;;;4.45;;
69890;SDS011;57170;43.964;21.262;2022-08-06T12:37:17;5.05;;;3.88;;
69890;SDS011;57170;43.964;21.262;2022-08-06T12:39:44;4.35;;;3.95;;
69890;SDS011;57170;43.964;21.262;2022-08-06T12:42:30;8.48;;;4.65;;
69890;SDS011;57170;43.964;21.262;2022-08-06T12:44:56;7.57;;;3.92;;
69890;SDS011;57170;43.964;21.262;2022-08-06T12:47:22;7.03;;;4.65;;
69890;SDS011;57170;43.964;21.262;2022-08-06T12:49:51;5.30;;;4.63;;
69890;SDS011;57170;43.964;21.262;2022-08-06T12:52:18;5.82;;;4.38;;
69890;SDS011;57170;43.964;21.262;2022-08-06T12:54:47;5.43;;;4.93;;
69890;SDS011;57170;43.964;21.262;2022-08-06T12:57:23;6.57;;;4.50;;
69890;SDS011;57170;43.964;21.262;2022-08-06T12:59:51;6.32;;;4.53;;
69890;SDS011;57170;43.964;21.262;2022-08-06T13:02:18;5.93;;;5.10;;
69890;SDS011;57170;43.964;21.262;2022-08-06T13:04:46;6.05;;;3.78;;
69890;SDS011;57170;43.964;21.262;2022-08-06T13:07:14;5.57;;;4.30;;
69890;SDS011;57170;43.964;21.262;2022-08-06T13:09:40;5.03;;;4.32;;
69890;SDS011;57170;43.964;21.262;2022-08-06T13:12:11;6.10;;;5.00;;
69890;SDS011;57170;43.964;21.262;2022-08-06T13:14:48;6.07;;;4.40;;
69890;SDS011;57170;43.964;21.262;2022-08-06T13:17:14;6.85;;;4.47;;
69890;SDS011;57170;43.964;21.262;2022-08-06T13:19:49;6.65;;;5.03;;
69890;SDS011;57170;43.964;21.262;2022-08-06T13:22:16;5.80;;;4.60;;
69890;SDS011;57170;43.964;21.262;2022-08-06T13:24:42;5.15;;;4.13;;
69890;SDS011;57170;43.964;21.262;2022-08-06T13:27:08;9.10;;;4.32;;
69890;SDS011;57170;43.964;21.262;2022-08-06T13:29:35;5.60;;;5.10;;
69890;SDS011;57170;43.964;21.262;2022-08-06T13:32:05;5.22;;;4.18;;
69890;SDS011;57170;43.964;21.262;2022-08-06T13:34:45;5.38;;;4.43;;
69890;SDS011;57170;43.964;21.262;2022-08-06T13:37:11;6.30;;;4.38;;
69890;SDS011;57170;43.964;21.262;2022-08-06T13:39:47;5.93;;;4.80;;
69890;SDS011;57170;43.964;21.262;2022-08-06T13:42:14;5.50;;;4.75;;
69890;SDS011;57170;43.964;21.262;2022-08-06T13:44:41;4.70;;;4.20;;
69890;SDS011;57170;43.964;21.262;2022-08-06T13:47:09;5.65;;;5.05;;
69890;SDS011;57170;43.964;21.262;2022-08-06T13:49:42;6.30;;;5.00;;
69890;SDS011;57170;43.964;21.262;2022-08-06T13:52:08;7.65;;;5.05;;
69890;SDS011;57170;43.964;21.262;2022-08-06T13:54:34;7.05;;;4.90;;
69890;SDS011;57170;43.964;21.262;2022-08-06T13:57:01;5.65;;;5.00;;
69890;SDS011;57170;43.964;21.262;2022-08-06T13:59:28;6.03;;;4.47;;
69890;SDS011;57170;43.964;21.262;2022-08-06T14:01:56;6.28;;;4.65;;
69890;SDS011;57170;43.964;21.262;2022-08-06T14:04:24;7.20;;;5.30;;
69890;SDS011;57170;43.964;21.262;2022-08-06T14:06:50;7.15;;;4.72;;
69890;SDS011;57170;43.964;21.262;2022-08-06T14:09:19;15.05;;;5.18;;
69890;SDS011;57170;43.964;21.262;2022-08-06T14:11:45;5.05;;;4.30;;
69890;SDS011;57170;43.964;21.262;2022-08-06T14:14:11;5.80;;;4.47;;
69890;SDS011;57170;43.964;21.262;2022-08-06T14:16:37;8.27;;;5.28;;
69890;SDS011;57170;43.964;21.262;2022-08-06T14:19:03;6.25;;;5.30;;
69890;SDS011;57170;43.964;21.262;2022-08-06T14:21:29;7.30;;;4.53;;
69890;SDS011;57170;43.964;21.262;2022-08-06T14:23:55;6.88;;;5.22;;
69890;SDS011;57170;43.964;21.262;2022-08-06T14:26:21;5.25;;;4.55;;
69890;SDS011;57170;43.964;21.262;2022-08-06T14:28:48;7.00;;;5.07;;
69890;SDS011;57170;43.964;21.262;2022-08-06T14:31:14;5.88;;;4.55;;
69890;SDS011;57170;43.964;21.262;2022-08-06T14:33:40;10.00;;;4.20;;
69890;SDS011;57170;43.964;21.262;2022-08-06T14:36:06;9.90;;;4.90;;
69890;SDS011;57170;43.964;21.262;2022-08-06T14:38:32;6.85;;;4.88;;
69890;SDS011;57170;43.964;21.262;2022-08-06T14:40:59;5.63;;;4.53;;
69890;SDS011;57170;43.964;21.262;2022-08-06T14:43:44;5.18;;;4.03;;
69890;SDS011;57170;43.964;21.262;2022-08-06T14:46:29;5.93;;;4.65;;
69890;SDS011;57170;43.964;21.262;2022-08-06T14:48:55;6.40;;;4.65;;
69890;SDS011;57170;43.964;21.262;2022-08-06T14:51:21;7.45;;;4.90;;
69890;SDS011;57170;43.964;21.262;2022-08-06T14:53:47;6.25;;;4.85;;
69890;SDS011;57170;43.964;21.262;2022-08-06T14:56:14;5.63;;;4.65;;
69890;SDS011;57170;43.964;21.262;2022-08-06T14:58:40;5.38;;;4.38;;
69890;SDS011;57170;43.964;21.262;2022-08-06T15:01:06;7.68;;;5.20;;
69890;SDS011;57170;43.964;21.262;2022-08-06T15:03:32;5.78;;;4.53;;
69890;SDS011;57170;43.964;21.262;2022-08-06T15:05:58;8.63;;;4.95;;
69890;SDS011;57170;43.964;21.262;2022-08-06T15:08:25;5.10;;;4.32;;
69890;SDS011;57170;43.964;21.262;2022-08-06T15:10:52;5.38;;;4.85;;
69890;SDS011;57170;43.964;21.262;2022-08-06T15:13:18;5.40;;;4.57;;
69890;SDS011;57170;43.964;21.262;2022-08-06T15:15:44;6.18;;;4.82;;
69890;SDS011;57170;43.964;21.262;2022-08-06T15:18:10;5.47;;;4.60;;
69890;SDS011;57170;43.964;21.262;2022-08-06T15:20:36;5.80;;;5.00;;
69890;SDS011;57170;43.964;21.262;2022-08-06T15:23:02;6.68;;;4.95;;
69890;SDS011;57170;43.964;21.262;2022-08-06T15:25:29;6.15;;;4.88;;
69890;SDS011;57170;43.964;21.262;2022-08-06T15:27:55;5.10;;;4.55;;
69890;SDS011;57170;43.964;21.262;2022-08-06T15:30:21;6.88;;;4.57;;
69890;SDS011;57170;43.964;21.262;2022-08-06T15:32:47;6.68;;;5.22;;
69890;SDS011;57170;43.964;21.262;2022-08-06T15:35:14;6.25;;;5.13;;
69890;SDS011;57170;43.964;21.262;2022-08-06T15:37:40;13.15;;;5.38;;
69890;SDS011;57170;43.964;21.262;2022-08-06T15:40:06;10.38;;;4.93;;
69890;SDS011;57170;43.964;21.262;2022-08-06T15:42:32;9.05;;;5.30;;
69890;SDS011;57170;43.964;21.262;2022-08-06T15:44:58;14.95;;;6.40;;
69890;SDS011;57170;43.964;21.262;2022-08-06T15:47:25;9.77;;;5.25;;
69890;SDS011;57170;43.964;21.262;2022-08-06T15:49:51;7.88;;;5.22;;
69890;SDS011;57170;43.964;21.262;2022-08-06T15:52:17;8.45;;;5.70;;
69890;SDS011;57170;43.964;21.262;2022-08-06T15:54:43;6.07;;;5.40;;